Time;durP1;ratioP1;P1;durP2;ratioP2;P2;SDS_P1;SDS_P2;PMS_P1;PMS_P2;Temp;Humidity;BMP_temperature;BMP_pressure;BME280_temperature;BME280_humidity;BME280_pressure;Samples;Min_cycle;Max_cycle;Signal;HPM_P1;HPM_P2
2021/09/05 00:02:07;;;;;;;14.40;12.90;;;16.50;99.90;;;;;;5069145;28;20496;-65
2021/09/05 00:04:34;;;;;;;14.10;12.60;;;16.50;99.90;;;;;;5062954;28;20819;-65
2021/09/05 00:07:01;;;;;;;15.73;12.50;;;16.50;99.90;;;;;;5055745;28;20535;-65
2021/09/05 00:09:28;;;;;;;13.13;11.70;;;16.50;99.90;;;;;;5057358;28;20475;-65
2021/09/05 00:11:55;;;;;;;12.67;11.47;;;16.50;99.90;;;;;;5060920;28;20464;-65
2021/09/05 00:14:21;;;;;;;16.90;12.63;;;16.50;99.90;;;;;;5062773;28;20471;-64
2021/09/05 00:16:48;;;;;;;12.97;11.70;;;16.40;99.90;;;;;;5052730;28;20481;-65
2021/09/05 00:19:16;;;;;;;15.80;13.87;;;16.40;99.90;;;;;;5065323;28;20462;-64
2021/09/05 00:21:43;;;;;;;14.53;13.03;;;16.40;99.90;;;;;;5052160;28;20472;-65
2021/09/05 00:24:10;;;;;;;14.73;12.43;;;16.30;99.90;;;;;;5054514;28;20531;-65
2021/09/05 00:26:37;;;;;;;14.90;12.40;;;16.30;99.90;;;;;;5068782;28;20461;-64
2021/09/05 00:29:04;;;;;;;15.90;14.30;;;16.30;99.90;;;;;;5056746;28;20483;-65
2021/09/05 00:31:31;;;;;;;17.80;14.27;;;16.30;99.90;;;;;;5060894;28;20824;-65
2021/09/05 00:34:01;;;;;;;19.13;15.37;;;16.30;99.90;;;;;;5056772;28;20779;-65
2021/09/05 00:36:30;;;;;;;16.10;13.60;;;16.30;99.90;;;;;;5055762;28;20471;-64
2021/09/05 00:38:56;;;;;;;16.80;13.57;;;16.30;99.90;;;;;;5056956;28;20818;-66
2021/09/05 00:41:23;;;;;;;17.40;13.70;;;16.20;99.90;;;;;;5054128;28;20471;-63
2021/09/05 00:44:01;;;;;;;18.07;15.00;;;16.20;99.90;;;;;;5052111;28;20470;-63
2021/09/05 00:46:28;;;;;;;19.63;13.80;;;16.20;99.90;;;;;;5059007;28;20462;-63
2021/09/05 00:48:55;;;;;;;20.63;15.23;;;16.20;99.90;;;;;;5058787;28;20475;-63
2021/09/05 00:51:22;;;;;;;18.80;15.37;;;16.20;99.90;;;;;;5064935;28;20475;-65
2021/09/05 00:53:53;;;;;;;14.00;12.70;;;16.10;99.90;;;;;;5066219;28;20476;-65
2021/09/05 00:56:20;;;;;;;15.00;12.37;;;16.10;99.90;;;;;;5052853;28;20463;-65
2021/09/05 00:58:47;;;;;;;16.33;14.63;;;16.20;99.90;;;;;;5056772;28;20465;-65
2021/09/05 01:01:14;;;;;;;16.23;13.80;;;16.20;99.90;;;;;;5060637;28;20475;-65
2021/09/05 01:03:41;;;;;;;13.60;12.23;;;16.10;99.90;;;;;;5058233;28;20462;-65
2021/09/05 01:06:08;;;;;;;14.77;12.90;;;16.10;99.90;;;;;;5052213;28;20775;-65
2021/09/05 01:08:35;;;;;;;18.70;13.80;;;16.10;99.90;;;;;;5065047;28;20471;-65
2021/09/05 01:11:04;;;;;;;18.30;13.30;;;16.10;99.90;;;;;;5052310;28;20463;-65
2021/09/05 01:13:32;;;;;;;16.60;14.90;;;16.10;99.90;;;;;;5051796;28;20471;-65
2021/09/05 01:15:58;;;;;;;18.20;14.13;;;16.10;99.90;;;;;;5051996;28;20463;-65
2021/09/05 01:18:25;;;;;;;15.10;13.60;;;16.10;99.90;;;;;;5051870;28;20471;-65
2021/09/05 01:20:52;;;;;;;15.13;13.50;;;16.10;99.90;;;;;;5061741;28;20481;-65
2021/09/05 01:23:19;;;;;;;14.80;13.20;;;16.10;99.90;;;;;;5055250;28;20471;-65
2021/09/05 01:25:46;;;;;;;15.43;13.93;;;16.10;99.90;;;;;;5057670;28;20471;-65
2021/09/05 01:28:14;;;;;;;16.10;13.07;;;16.10;99.90;;;;;;5065131;28;20979;-65
2021/09/05 01:30:41;;;;;;;17.10;12.77;;;16.00;99.90;;;;;;5052074;28;20473;-65
2021/09/05 01:33:08;;;;;;;17.70;14.93;;;16.00;99.90;;;;;;5059421;28;20475;-65
2021/09/05 01:35:36;;;;;;;18.50;14.07;;;16.00;99.90;;;;;;5064659;28;20827;-65
2021/09/05 01:38:03;;;;;;;23.67;20.00;;;16.00;99.90;;;;;;5068087;28;20477;-65
2021/09/05 01:40:30;;;;;;;58.50;51.70;;;16.00;99.90;;;;;;5067590;28;20964;-65
2021/09/05 01:42:59;;;;;;;17.40;15.43;;;16.00;99.90;;;;;;5070532;28;21006;-65
2021/09/05 01:45:27;;;;;;;17.00;15.20;;;16.00;99.90;;;;;;5061457;28;20473;-65
2021/09/05 01:47:54;;;;;;;21.27;15.10;;;16.00;99.90;;;;;;5056055;28;20458;-65
2021/09/05 01:50:21;;;;;;;17.30;15.17;;;16.00;99.90;;;;;;5067990;28;20469;-65
2021/09/05 01:52:48;;;;;;;16.37;14.60;;;16.00;99.90;;;;;;5061896;28;20830;-65
2021/09/05 01:55:15;;;;;;;15.83;14.07;;;15.90;99.90;;;;;;5062738;28;20545;-66
2021/09/05 01:57:42;;;;;;;15.70;14.00;;;16.00;99.90;;;;;;5054719;28;20805;-66
2021/09/05 02:00:10;;;;;;;19.60;15.40;;;16.00;99.90;;;;;;5055274;28;20463;-65
2021/09/05 02:02:38;;;;;;;17.95;15.50;;;15.90;99.90;;;;;;5054760;28;20444;-65
2021/09/05 02:05:05;;;;;;;15.47;13.90;;;16.00;99.90;;;;;;5055181;28;20270;-65
2021/09/05 02:07:32;;;;;;;17.00;14.13;;;15.90;99.90;;;;;;5061590;28;20474;-65
2021/09/05 02:09:59;;;;;;;14.97;13.27;;;15.90;99.90;;;;;;5061307;28;20466;-65
2021/09/05 02:12:27;;;;;;;15.90;14.27;;;15.90;99.90;;;;;;5055131;28;20804;-65
2021/09/05 02:14:53;;;;;;;17.50;13.60;;;15.80;99.90;;;;;;5056243;28;20542;-65
2021/09/05 02:17:20;;;;;;;17.43;15.43;;;15.80;99.90;;;;;;5054875;28;20492;-66
2021/09/05 02:19:48;;;;;;;18.00;15.67;;;15.80;99.90;;;;;;5054971;28;20475;-65
2021/09/05 02:22:15;;;;;;;20.83;17.80;;;15.90;99.90;;;;;;5071297;28;20462;-63
2021/09/05 02:24:42;;;;;;;19.00;16.47;;;15.90;99.90;;;;;;5060318;28;20480;-65
2021/09/05 02:27:09;;;;;;;37.83;32.10;;;15.90;99.90;;;;;;5062061;28;20469;-64
2021/09/05 02:29:36;;;;;;;23.77;20.10;;;15.90;99.90;;;;;;5060199;28;20812;-65
2021/09/05 02:32:03;;;;;;;22.20;19.70;;;16.00;99.90;;;;;;5054410;28;20462;-64
2021/09/05 02:34:30;;;;;;;20.73;17.90;;;16.00;99.90;;;;;;5068055;28;20484;-66
2021/09/05 02:36:58;;;;;;;21.33;17.23;;;16.00;99.90;;;;;;5062007;28;20462;-65
2021/09/05 02:39:25;;;;;;;26.50;17.97;;;16.00;99.90;;;;;;5072939;28;20469;-65
2021/09/05 02:41:52;;;;;;;16.03;14.33;;;16.00;99.90;;;;;;5061591;28;20899;-65
2021/09/05 02:44:18;;;;;;;20.00;16.07;;;16.00;99.90;;;;;;5059832;28;20971;-65
2021/09/05 02:46:46;;;;;;;19.90;17.80;;;16.00;99.90;;;;;;5060295;28;20470;-65
2021/09/05 02:49:12;;;;;;;22.73;19.40;;;16.10;99.90;;;;;;5054474;28;20468;-65
2021/09/05 02:51:40;;;;;;;25.37;21.70;;;16.10;99.90;;;;;;5053674;28;20481;-65
2021/09/05 02:54:08;;;;;;;22.23;19.57;;;16.10;99.90;;;;;;5071655;28;20469;-66
2021/09/05 02:56:35;;;;;;;23.33;19.40;;;16.10;99.90;;;;;;5057969;28;20914;-65
2021/09/05 02:59:02;;;;;;;29.57;20.60;;;16.10;99.90;;;;;;5063533;28;20572;-65
2021/09/05 03:01:28;;;;;;;24.20;20.27;;;16.20;99.90;;;;;;5068162;28;20466;-65
2021/09/05 03:03:55;;;;;;;36.67;27.80;;;16.20;99.90;;;;;;5053690;28;20473;-64
2021/09/05 03:06:22;;;;;;;27.60;24.03;;;16.10;99.90;;;;;;5067195;28;20472;-64
2021/09/05 03:08:49;;;;;;;32.17;26.03;;;16.10;99.90;;;;;;5058562;28;20471;-64
2021/09/05 03:11:17;;;;;;;34.47;24.33;;;16.10;99.90;;;;;;5057090;28;20476;-64
2021/09/05 03:13:47;;;;;;;29.93;25.10;;;16.10;99.90;;;;;;5066346;28;20520;-64
2021/09/05 03:16:14;;;;;;;30.73;24.57;;;16.10;99.90;;;;;;5053706;28;20554;-65
2021/09/05 03:18:40;;;;;;;28.17;22.73;;;16.10;99.90;;;;;;5063775;28;20974;-64
2021/09/05 03:21:07;;;;;;;30.10;21.73;;;16.10;99.90;;;;;;5056347;28;20481;-64
2021/09/05 03:23:34;;;;;;;27.30;22.13;;;16.10;99.90;;;;;;5053599;28;20800;-64
2021/09/05 03:26:01;;;;;;;29.07;22.23;;;16.10;99.90;;;;;;5066829;28;21621;-64
2021/09/05 03:28:33;;;;;;;26.97;22.73;;;16.20;99.90;;;;;;5053420;28;20486;-64
2021/09/05 03:31:00;;;;;;;33.50;23.10;;;16.10;99.90;;;;;;5057303;28;20476;-65
2021/09/05 03:33:27;;;;;;;24.23;20.70;;;16.10;99.90;;;;;;5062279;28;20561;-64
2021/09/05 03:35:53;;;;;;;23.70;20.30;;;16.10;99.90;;;;;;5052842;28;20546;-65
2021/09/05 03:38:20;;;;;;;25.90;21.53;;;16.10;99.90;;;;;;5060849;28;20478;-64
2021/09/05 03:40:47;;;;;;;24.53;19.63;;;16.10;99.90;;;;;;5057375;28;20470;-64
2021/09/05 03:43:14;;;;;;;25.00;19.97;;;16.10;99.90;;;;;;5061428;28;20476;-64
2021/09/05 03:45:42;;;;;;;25.30;20.23;;;16.10;99.90;;;;;;5052707;28;20808;-64
2021/09/05 03:48:10;;;;;;;31.47;21.40;;;16.00;99.90;;;;;;5066587;28;20925;-64
2021/09/05 03:50:37;;;;;;;22.53;19.53;;;16.00;99.90;;;;;;5053133;28;20478;-64
2021/09/05 03:53:03;;;;;;;22.83;19.00;;;16.00;99.90;;;;;;5061131;28;20443;-64
2021/09/05 03:55:31;;;;;;;21.63;19.30;;;16.00;99.90;;;;;;5052962;28;20477;-64
2021/09/05 03:57:57;;;;;;;24.20;20.53;;;16.10;99.90;;;;;;5052534;28;20467;-64
2021/09/05 04:00:24;;;;;;;23.67;20.70;;;16.00;99.90;;;;;;5069839;28;20488;-65
2021/09/05 04:02:52;;;;;;;23.57;21.07;;;16.00;99.90;;;;;;5058435;28;20475;-65
2021/09/05 04:05:19;;;;;;;25.00;20.27;;;15.90;99.90;;;;;;5060136;28;20469;-64
2021/09/05 04:08:01;;;;;;;26.80;21.73;;;15.90;99.90;;;;;;5058330;28;20482;-65
2021/09/05 04:10:28;;;;;;;23.27;20.33;;;15.80;99.90;;;;;;5053027;28;20469;-65
2021/09/05 04:12:55;;;;;;;25.10;19.07;;;15.80;99.90;;;;;;5065712;28;20470;-65
2021/09/05 04:15:22;;;;;;;21.63;16.83;;;15.80;99.90;;;;;;5052846;28;20810;-63
2021/09/05 04:17:49;;;;;;;23.40;18.17;;;15.80;99.90;;;;;;5055406;28;20477;-65
2021/09/05 04:20:17;;;;;;;20.80;16.87;;;15.80;99.90;;;;;;5062593;28;20481;-65
2021/09/05 04:22:44;;;;;;;17.10;15.40;;;15.70;99.90;;;;;;5052167;28;20991;-65
2021/09/05 04:25:12;;;;;;;21.50;16.80;;;15.70;99.90;;;;;;5063282;28;20475;-65
2021/09/05 04:27:39;;;;;;;18.63;15.33;;;15.60;99.90;;;;;;5054979;28;20470;-65
2021/09/05 04:30:07;;;;;;;17.57;15.67;;;15.60;99.90;;;;;;5051974;28;20466;-65
2021/09/05 04:32:34;;;;;;;19.07;16.90;;;15.60;99.90;;;;;;5065856;28;20557;-65
2021/09/05 04:35:01;;;;;;;18.97;17.00;;;15.50;99.90;;;;;;5052064;28;20471;-65
2021/09/05 04:37:30;;;;;;;17.10;15.33;;;15.50;99.90;;;;;;5059529;28;20479;-65
2021/09/05 04:39:56;;;;;;;22.07;16.27;;;15.50;99.90;;;;;;5053026;28;20562;-65
2021/09/05 04:42:24;;;;;;;17.03;14.20;;;15.50;99.90;;;;;;5063703;28;20470;-65
2021/09/05 04:44:52;;;;;;;16.77;15.17;;;15.50;99.90;;;;;;5052649;28;20477;-65
2021/09/05 04:47:20;;;;;;;15.20;13.53;;;15.50;99.90;;;;;;5053054;28;20473;-65
2021/09/05 04:49:47;;;;;;;15.37;12.47;;;15.50;99.90;;;;;;5051832;28;20469;-65
2021/09/05 04:52:14;;;;;;;15.73;13.93;;;15.50;99.90;;;;;;5054110;28;20477;-65
2021/09/05 04:54:42;;;;;;;15.10;13.50;;;15.60;99.90;;;;;;5071942;28;20489;-65
2021/09/05 04:57:09;;;;;;;14.90;12.77;;;15.60;99.90;;;;;;5051832;28;21257;-65
2021/09/05 04:59:36;;;;;;;18.87;13.97;;;15.60;99.90;;;;;;5063198;28;20481;-65
2021/09/05 05:02:03;;;;;;;16.43;13.67;;;15.60;99.90;;;;;;5064626;28;20462;-65
2021/09/05 05:04:30;;;;;;;16.70;13.80;;;15.50;99.90;;;;;;5053484;28;20467;-65
2021/09/05 05:06:56;;;;;;;16.53;13.00;;;15.60;99.90;;;;;;5068049;28;20498;-65
2021/09/05 05:09:23;;;;;;;16.20;13.63;;;15.60;99.90;;;;;;5055964;28;20474;-65
2021/09/05 05:11:51;;;;;;;16.57;13.47;;;15.70;99.90;;;;;;5063693;28;20483;-65
2021/09/05 05:14:18;;;;;;;14.30;12.83;;;15.70;99.90;;;;;;5061422;28;20469;-65
2021/09/05 05:16:45;;;;;;;13.77;12.40;;;15.70;99.90;;;;;;5056100;28;20484;-65
2021/09/05 05:19:12;;;;;;;14.33;12.73;;;15.70;99.90;;;;;;5069168;28;20458;-65
2021/09/05 05:21:39;;;;;;;13.83;12.43;;;15.70;99.90;;;;;;5055984;28;20463;-65
2021/09/05 05:24:06;;;;;;;15.93;13.17;;;15.70;99.90;;;;;;5056650;28;20467;-65
2021/09/05 05:26:33;;;;;;;14.07;12.57;;;15.70;99.90;;;;;;5072786;28;20476;-65
2021/09/05 05:29:01;;;;;;;14.27;11.87;;;15.70;99.90;;;;;;5067574;28;20482;-65
2021/09/05 05:31:28;;;;;;;14.47;11.40;;;15.80;99.90;;;;;;5055518;28;20478;-65
2021/09/05 05:33:54;;;;;;;12.10;11.00;;;15.80;99.90;;;;;;5063268;28;20471;-65
2021/09/05 05:36:21;;;;;;;14.30;11.10;;;15.80;99.90;;;;;;5062452;28;20476;-64
2021/09/05 05:38:48;;;;;;;14.33;12.17;;;15.80;99.90;;;;;;5063540;28;20484;-64
2021/09/05 05:41:15;;;;;;;14.83;13.17;;;15.80;99.90;;;;;;5061834;28;21237;-64
2021/09/05 05:43:42;;;;;;;16.53;12.80;;;15.90;99.90;;;;;;5066289;28;20471;-64
2021/09/05 05:46:10;;;;;;;13.90;12.00;;;15.90;99.90;;;;;;5068305;28;20943;-63
2021/09/05 05:48:37;;;;;;;14.67;12.87;;;15.90;99.90;;;;;;5055423;28;20474;-63
2021/09/05 05:51:04;;;;;;;15.07;12.57;;;15.90;99.90;;;;;;5056678;28;20471;-64
2021/09/05 05:53:31;;;;;;;15.00;10.87;;;15.90;99.90;;;;;;5075161;28;20478;-64
2021/09/05 05:55:58;;;;;;;12.13;10.50;;;16.00;99.90;;;;;;5059201;28;20473;-64
2021/09/05 05:58:25;;;;;;;12.47;11.00;;;16.00;99.90;;;;;;5055259;28;20482;-64
2021/09/05 06:00:52;;;;;;;17.70;11.30;;;16.00;99.90;;;;;;5059500;28;20481;-65
2021/09/05 06:03:21;;;;;;;15.67;12.40;;;16.00;99.90;;;;;;5065775;28;20473;-65
2021/09/05 06:05:48;;;;;;;14.40;10.70;;;16.00;99.90;;;;;;5054858;28;20507;-65
2021/09/05 06:08:15;;;;;;;11.43;10.00;;;16.00;99.90;;;;;;5064973;28;20484;-65
2021/09/05 06:10:41;;;;;;;10.43;9.17;;;16.10;99.90;;;;;;5057934;28;20474;-65
2021/09/05 06:13:08;;;;;;;10.63;9.30;;;16.10;99.90;;;;;;5054666;28;20470;-65
2021/09/05 06:15:35;;;;;;;11.77;10.57;;;16.10;99.90;;;;;;5055510;28;20471;-65
2021/09/05 06:18:02;;;;;;;12.20;9.50;;;16.10;99.90;;;;;;5053494;28;20467;-65
2021/09/05 06:20:31;;;;;;;11.70;10.50;;;16.10;99.90;;;;;;5058641;28;20474;-65
2021/09/05 06:22:57;;;;;;;8.63;7.73;;;16.10;99.90;;;;;;5063616;28;20463;-65
2021/09/05 06:25:24;;;;;;;11.03;9.90;;;16.00;99.90;;;;;;5060995;28;20473;-66
2021/09/05 06:27:51;;;;;;;8.97;8.07;;;16.00;99.90;;;;;;5066455;28;20495;-65
2021/09/05 06:30:18;;;;;;;10.20;8.67;;;16.00;99.90;;;;;;5055611;28;20475;-65
2021/09/05 06:32:45;;;;;;;11.03;7.97;;;16.00;99.90;;;;;;5054555;28;20471;-65
2021/09/05 06:35:12;;;;;;;9.23;8.33;;;16.00;99.90;;;;;;5067381;28;21006;-65
2021/09/05 06:37:40;;;;;;;9.20;7.53;;;16.00;99.90;;;;;;5055072;28;20966;-63
2021/09/05 06:40:08;;;;;;;12.07;8.70;;;16.10;99.90;;;;;;5067092;28;20489;-64
2021/09/05 06:42:35;;;;;;;12.37;8.50;;;16.10;99.90;;;;;;5059490;28;20949;-65
2021/09/05 06:45:01;;;;;;;9.57;7.27;;;16.10;99.90;;;;;;5067703;28;20493;-64
2021/09/05 06:47:28;;;;;;;10.27;8.03;;;16.20;99.90;;;;;;5065295;28;20469;-65
2021/09/05 06:49:55;;;;;;;7.37;6.67;;;16.20;99.90;;;;;;5054138;28;20485;-64
2021/09/05 06:52:22;;;;;;;9.27;7.27;;;16.30;99.90;;;;;;5067529;28;20460;-65
2021/09/05 06:54:50;;;;;;;8.10;6.40;;;16.30;99.90;;;;;;5061043;28;20985;-64
2021/09/05 06:57:17;;;;;;;11.00;8.20;;;16.40;99.90;;;;;;5060260;28;20546;-65
2021/09/05 06:59:44;;;;;;;7.97;6.87;;;16.30;99.90;;;;;;5058603;28;20474;-64
2021/09/05 07:02:11;;;;;;;9.00;6.83;;;16.30;99.90;;;;;;5065406;28;21024;-64
2021/09/05 07:04:38;;;;;;;10.13;7.10;;;16.40;99.90;;;;;;5053981;28;20475;-65
2021/09/05 07:07:05;;;;;;;8.10;7.03;;;16.40;99.90;;;;;;5053583;28;20481;-64
2021/09/05 07:09:32;;;;;;;7.97;7.00;;;16.50;99.90;;;;;;5067264;28;20505;-64
2021/09/05 07:12:00;;;;;;;9.23;6.90;;;16.50;99.90;;;;;;5053614;28;20480;-64
2021/09/05 07:14:27;;;;;;;7.07;6.37;;;16.60;99.90;;;;;;5053832;28;20468;-64
2021/09/05 07:16:53;;;;;;;7.97;6.60;;;16.70;99.90;;;;;;5065906;28;20469;-65
2021/09/05 07:19:20;;;;;;;9.13;7.57;;;16.80;99.90;;;;;;5054474;28;20463;-65
2021/09/05 07:21:48;;;;;;;9.37;7.30;;;16.80;99.90;;;;;;5053787;28;20856;-65
2021/09/05 07:24:15;;;;;;;10.20;7.17;;;16.90;99.90;;;;;;5066543;28;20472;-65
2021/09/05 07:26:42;;;;;;;8.90;7.17;;;16.90;99.90;;;;;;5053627;28;20468;-65
2021/09/05 07:29:10;;;;;;;8.60;6.73;;;16.90;99.90;;;;;;5058953;28;20474;-64
2021/09/05 07:31:37;;;;;;;9.33;8.40;;;17.00;99.90;;;;;;5060451;28;20794;-64
2021/09/05 07:34:04;;;;;;;9.47;8.03;;;17.10;99.90;;;;;;5053109;28;20813;-65
2021/09/05 07:36:33;;;;;;;9.03;7.63;;;17.10;99.90;;;;;;5066337;28;20811;-65
2021/09/05 07:39:03;;;;;;;11.13;8.77;;;17.20;99.90;;;;;;5059508;28;20835;-64
2021/09/05 07:41:30;;;;;;;8.13;7.33;;;17.30;99.90;;;;;;5059912;28;20471;-64
2021/09/05 07:43:57;;;;;;;14.20;9.23;;;17.30;99.90;;;;;;5065794;28;20820;-65
2021/09/05 07:46:25;;;;;;;11.13;9.33;;;17.40;99.90;;;;;;5064931;28;20473;-64
2021/09/05 07:48:52;;;;;;;9.77;8.73;;;17.40;99.90;;;;;;5053247;28;20983;-65
2021/09/05 07:51:23;;;;;;;9.60;8.40;;;17.50;99.90;;;;;;5055082;28;20505;-65
2021/09/05 07:53:50;;;;;;;10.40;8.80;;;17.50;99.90;;;;;;5072990;28;20481;-65
2021/09/05 07:56:17;;;;;;;16.80;9.80;;;17.60;99.90;;;;;;5059098;28;20480;-65
2021/09/05 07:58:45;;;;;;;10.60;8.77;;;17.60;99.90;;;;;;5062301;28;20471;-65
2021/09/05 08:01:12;;;;;;;10.90;9.37;;;17.70;99.90;;;;;;5064105;28;20464;-63
2021/09/05 08:03:40;;;;;;;10.27;8.43;;;17.70;99.90;;;;;;5062315;28;20465;-64
2021/09/05 08:06:07;;;;;;;8.87;7.90;;;17.80;99.90;;;;;;5055624;28;21006;-64
2021/09/05 08:08:36;;;;;;;11.20;8.40;;;17.90;99.90;;;;;;5060556;28;20550;-64
2021/09/05 08:11:04;;;;;;;10.80;8.30;;;18.00;99.90;;;;;;5065815;28;20474;-64
2021/09/05 08:13:31;;;;;;;8.97;7.77;;;18.10;99.90;;;;;;5059438;28;20467;-65
2021/09/05 08:16:00;;;;;;;11.43;8.20;;;18.10;99.90;;;;;;5056930;28;20466;-65
2021/09/05 08:18:28;;;;;;;9.33;8.37;;;18.20;99.90;;;;;;5060992;28;21209;-65
2021/09/05 08:20:57;;;;;;;8.47;7.60;;;18.20;99.90;;;;;;5052460;28;20475;-65
2021/09/05 08:23:24;;;;;;;8.70;7.80;;;18.30;99.90;;;;;;5064603;28;20453;-65
2021/09/05 08:25:51;;;;;;;10.73;9.30;;;18.40;99.90;;;;;;5053482;28;20479;-64
2021/09/05 08:28:18;;;;;;;9.83;7.93;;;18.40;99.90;;;;;;5051929;28;20479;-65
2021/09/05 08:30:45;;;;;;;14.93;9.00;;;18.50;99.90;;;;;;5065893;28;20554;-63
2021/09/05 08:33:12;;;;;;;10.63;8.80;;;18.50;99.90;;;;;;5051892;28;20479;-64
2021/09/05 08:35:39;;;;;;;12.70;8.80;;;18.60;99.90;;;;;;5065409;28;20471;-64
2021/09/05 08:38:08;;;;;;;8.60;7.70;;;18.70;99.90;;;;;;5056304;28;20805;-65
2021/09/05 08:40:39;;;;;;;7.63;6.83;;;18.80;99.90;;;;;;5064992;28;20554;-65
2021/09/05 08:43:06;;;;;;;7.90;6.70;;;18.90;99.90;;;;;;5051983;28;20482;-65
2021/09/05 08:45:33;;;;;;;12.33;7.80;;;18.90;99.90;;;;;;5052425;28;20467;-65
2021/09/05 08:48:01;;;;;;;9.17;7.23;;;19.00;99.90;;;;;;5059620;28;20477;-65
2021/09/05 08:50:29;;;;;;;8.67;7.77;;;19.00;99.90;;;;;;5065124;28;20800;-65
2021/09/05 08:52:56;;;;;;;10.10;9.10;;;19.00;99.90;;;;;;5059926;28;20462;-64
2021/09/05 08:55:24;;;;;;;10.00;8.50;;;19.10;99.90;;;;;;5070526;28;20458;-65
2021/09/05 08:57:51;;;;;;;11.93;8.40;;;19.10;99.90;;;;;;5055306;28;20506;-65
2021/09/05 09:00:18;;;;;;;7.57;6.87;;;19.10;99.90;;;;;;5061465;28;20983;-64
2021/09/05 09:02:47;;;;;;;8.57;7.57;;;19.20;99.90;;;;;;5066123;28;20476;-64
2021/09/05 09:05:14;;;;;;;9.33;7.40;;;19.20;99.90;;;;;;5055660;28;20478;-63
2021/09/05 09:07:46;;;;;;;10.50;8.97;;;19.30;99.90;;;;;;5061811;28;20466;-64
2021/09/05 09:10:13;;;;;;;8.37;7.43;;;19.30;99.90;;;;;;5061961;28;20956;-64
2021/09/05 09:12:43;;;;;;;9.20;7.73;;;19.30;99.90;;;;;;5058361;28;20463;-64
2021/09/05 09:15:21;;;;;;;8.47;7.63;;;19.40;99.90;;;;;;5064845;28;20463;-64
2021/09/05 09:17:51;;;;;;;11.77;9.10;;;19.30;99.90;;;;;;5052306;28;20477;-64
2021/09/05 09:20:35;;;;;;;10.43;9.17;;;19.40;99.90;;;;;;5055225;28;20478;-65
2021/09/05 09:23:14;;;;;;;10.53;9.37;;;19.40;99.90;;;;;;5053394;28;20482;-64
2021/09/05 09:25:56;;;;;;;9.20;8.30;;;19.40;99.90;;;;;;5064056;28;20504;-64
2021/09/05 09:28:26;;;;;;;9.80;8.83;;;19.50;99.90;;;;;;5058622;28;20466;-64
2021/09/05 09:30:54;;;;;;;12.77;10.87;;;19.50;99.90;;;;;;5058840;28;20980;-64
2021/09/05 09:33:22;;;;;;;9.80;8.67;;;19.50;99.90;;;;;;5059421;28;20991;-64
2021/09/05 09:35:51;;;;;;;11.13;9.60;;;19.50;99.90;;;;;;5065285;28;20477;-63
2021/09/05 09:38:19;;;;;;;9.53;8.27;;;19.60;99.90;;;;;;5057457;28;20475;-66
2021/09/05 09:40:47;;;;;;;10.50;9.50;;;19.60;99.90;;;;;;5063697;28;20474;-66
2021/09/05 09:43:21;;;;;;;11.03;9.93;;;19.60;99.90;;;;;;5054928;28;20471;-65
2021/09/05 09:45:51;;;;;;;12.17;9.67;;;19.60;99.90;;;;;;5053882;28;20473;-65
2021/09/05 09:48:26;;;;;;;11.10;9.23;;;19.70;99.90;;;;;;5053492;28;20502;-65
2021/09/05 09:51:00;;;;;;;12.63;9.33;;;19.70;99.90;;;;;;5055394;28;21320;-65
2021/09/05 09:53:28;;;;;;;14.23;9.50;;;19.70;99.90;;;;;;5062232;28;20470;-65
2021/09/05 09:55:57;;;;;;;11.07;9.10;;;19.70;99.90;;;;;;5054059;28;20460;-65
2021/09/05 09:58:24;;;;;;;10.63;9.63;;;19.80;99.90;;;;;;5044927;28;20480;-65
2021/09/05 10:00:53;;;;;;;12.30;9.90;;;19.80;99.90;;;;;;5041903;28;20659;-65
2021/09/05 10:03:21;;;;;;;8.90;8.00;;;19.80;99.90;;;;;;5041776;28;20480;-65
2021/09/05 10:05:48;;;;;;;10.83;8.93;;;19.90;99.90;;;;;;5041813;28;20817;-64
2021/09/05 10:08:16;;;;;;;12.20;9.77;;;19.90;99.90;;;;;;5042235;28;20486;-64
2021/09/05 10:10:43;;;;;;;12.63;9.37;;;19.90;99.90;;;;;;5040166;28;20479;-64
2021/09/05 10:13:10;;;;;;;13.50;11.10;;;19.90;99.90;;;;;;5050821;28;20477;-65
2021/09/05 10:15:37;;;;;;;12.90;9.60;;;20.00;99.90;;;;;;5037858;28;20468;-64
2021/09/05 10:18:07;;;;;;;11.63;9.70;;;20.00;99.90;;;;;;5037184;28;20539;-65
2021/09/05 10:20:34;;;;;;;10.53;9.23;;;20.10;99.90;;;;;;5037182;28;20476;-64
2021/09/05 10:23:04;;;;;;;11.63;10.43;;;20.10;99.90;;;;;;5051968;28;20510;-65
2021/09/05 10:25:31;;;;;;;12.43;10.70;;;20.20;99.90;;;;;;5040878;28;20486;-65
2021/09/05 10:27:58;;;;;;;15.73;10.50;;;20.30;99.90;;;;;;5039294;28;20532;-65
2021/09/05 10:30:25;;;;;;;13.13;11.07;;;20.30;99.90;;;;;;5036307;28;20510;-65
2021/09/05 10:32:54;;;;;;;15.50;11.37;;;20.30;99.90;;;;;;5036354;28;20460;-64
2021/09/05 10:35:38;;;;;;;17.63;14.10;;;20.20;99.60;;;;;;5041296;28;20456;-65
2021/09/05 10:38:31;;;;;;;12.03;10.27;;;20.30;99.70;;;;;;5048237;28;20461;-65
2021/09/05 10:41:00;;;;;;;10.47;9.40;;;20.30;99.70;;;;;;5033889;28;20486;-65
2021/09/05 10:44:14;;;;;;;14.10;11.00;;;20.30;99.80;;;;;;5038234;28;20481;-65
2021/09/05 10:46:46;;;;;;;13.70;10.73;;;20.40;99.80;;;;;;5036995;28;20555;-66
2021/09/05 10:49:13;;;;;;;9.90;8.90;;;20.50;99.80;;;;;;5035301;28;20494;-65
2021/09/05 10:51:46;;;;;;;11.30;10.20;;;20.50;99.40;;;;;;5041760;28;20471;-64
2021/09/05 10:54:21;;;;;;;10.97;9.83;;;20.60;99.60;;;;;;5048857;28;20467;-65
2021/09/05 10:56:49;;;;;;;10.43;9.43;;;20.60;99.70;;;;;;5037610;28;20463;-66
2021/09/05 10:59:19;;;;;;;10.53;9.07;;;20.60;99.50;;;;;;5039960;28;20516;-65
2021/09/05 11:01:57;;;;;;;11.60;9.40;;;20.70;99.60;;;;;;5051667;28;20933;-65
2021/09/05 11:04:25;;;;;;;9.90;8.97;;;20.80;99.70;;;;;;5038212;28;20491;-64
2021/09/05 11:06:56;;;;;;;10.80;9.10;;;20.80;99.50;;;;;;5046318;28;20463;-64
2021/09/05 11:09:56;;;;;;;9.77;8.77;;;20.90;99.30;;;;;;5039627;28;20538;-64
2021/09/05 11:12:44;;;;;;;10.77;9.73;;;21.00;99.30;;;;;;5038622;28;20483;-65
2021/09/05 11:15:16;;;;;;;9.70;8.77;;;21.00;99.00;;;;;;5038802;28;20497;-65
2021/09/05 11:17:43;;;;;;;9.00;8.13;;;21.00;98.80;;;;;;5048044;28;20463;-65
2021/09/05 11:20:12;;;;;;;9.53;8.53;;;21.10;98.70;;;;;;5039419;28;20555;-65
2021/09/05 11:22:44;;;;;;;9.80;8.80;;;21.10;98.60;;;;;;5033923;28;20559;-65
2021/09/05 11:25:20;;;;;;;9.67;8.50;;;21.10;98.80;;;;;;5032881;28;20992;-64
2021/09/05 11:28:02;;;;;;;9.17;8.27;;;21.10;98.80;;;;;;5033200;28;20483;-65
2021/09/05 11:30:37;;;;;;;9.80;8.80;;;21.20;98.80;;;;;;5033735;28;20467;-65
2021/09/05 11:33:06;;;;;;;8.90;8.00;;;21.20;98.60;;;;;;5034440;28;20543;-65
2021/09/05 11:35:42;;;;;;;11.70;10.60;;;21.20;98.90;;;;;;5042518;28;20473;-65
2021/09/05 11:38:11;;;;;;;9.90;8.90;;;21.20;98.90;;;;;;5037614;28;20480;-65
2021/09/05 11:40:43;;;;;;;9.23;8.17;;;21.30;98.70;;;;;;5038708;28;20480;-65
2021/09/05 11:43:10;;;;;;;10.10;9.10;;;21.30;98.60;;;;;;5047891;28;20547;-65
2021/09/05 11:45:39;;;;;;;9.50;8.43;;;21.40;98.70;;;;;;5034408;28;20858;-65
2021/09/05 11:48:08;;;;;;;9.57;8.37;;;21.50;98.90;;;;;;5038776;28;20566;-65
2021/09/05 11:50:36;;;;;;;11.23;8.77;;;21.50;98.90;;;;;;5033824;28;20468;-64
2021/09/05 11:53:03;;;;;;;14.10;12.70;;;21.50;98.40;;;;;;5029895;28;20464;-65
2021/09/05 11:55:32;;;;;;;10.07;9.03;;;21.60;98.40;;;;;;5040055;28;20435;-65
2021/09/05 11:58:00;;;;;;;10.37;9.23;;;21.60;98.30;;;;;;5038849;28;20468;-65
2021/09/05 12:00:30;;;;;;;12.23;9.30;;;21.70;98.30;;;;;;5029850;28;20480;-65
2021/09/05 12:02:58;;;;;;;9.60;8.70;;;21.80;98.20;;;;;;5032927;28;20471;-64
2021/09/05 12:05:25;;;;;;;11.60;8.67;;;21.80;97.80;;;;;;5032798;28;20814;-65
2021/09/05 12:07:52;;;;;;;11.80;10.40;;;21.80;97.70;;;;;;5033185;28;20812;-65
2021/09/05 12:10:22;;;;;;;10.30;9.30;;;21.90;97.70;;;;;;5032623;28;20463;-64
2021/09/05 12:13:01;;;;;;;12.20;9.03;;;21.90;97.60;;;;;;5033433;28;20464;-64
2021/09/05 12:15:33;;;;;;;9.87;8.87;;;22.00;97.40;;;;;;5032020;28;20472;-65
2021/09/05 12:18:00;;;;;;;13.60;9.33;;;22.10;97.50;;;;;;5032766;28;20474;-65
2021/09/05 12:20:41;;;;;;;9.77;8.77;;;22.10;97.40;;;;;;5031631;28;20808;-65
2021/09/05 12:23:22;;;;;;;10.50;9.60;;;22.20;97.40;;;;;;5033285;28;20471;-65
2021/09/05 12:25:49;;;;;;;9.70;8.80;;;22.20;97.50;;;;;;5033385;28;20474;-64
2021/09/05 12:28:23;;;;;;;9.17;8.37;;;22.20;97.00;;;;;;5032385;28;20474;-64
2021/09/05 12:30:52;;;;;;;9.20;8.30;;;22.30;97.00;;;;;;5032882;28;20468;-65
2021/09/05 12:33:20;;;;;;;10.33;9.33;;;22.30;97.00;;;;;;5032792;28;20468;-65
2021/09/05 12:35:50;;;;;;;13.03;11.63;;;22.20;96.90;;;;;;5032788;28;20467;-65
2021/09/05 12:38:25;;;;;;;11.50;10.40;;;22.20;97.10;;;;;;5050290;28;20485;-64
2021/09/05 12:40:52;;;;;;;11.57;9.20;;;22.30;97.50;;;;;;5052575;28;20459;-64